createdAt,value
2023-03-02T00:01:03.856Z,34.36
2023-03-02T00:03:33.449Z,29.89
2023-03-02T00:06:00.721Z,30.19
2023-03-02T00:08:28.387Z,36.18
2023-03-02T00:10:56.664Z,33.47
2023-03-02T00:13:24.013Z,35.34
2023-03-02T00:15:50.599Z,33.14
2023-03-02T00:18:17.080Z,35.23
2023-03-02T00:20:43.563Z,32.27
2023-03-02T00:23:10.051Z,31.59
2023-03-02T00:25:36.530Z,33.19
2023-03-02T00:28:03.228Z,32.46
2023-03-02T00:30:29.659Z,35.24
2023-03-02T00:32:56.453Z,40.58
2023-03-02T00:35:22.940Z,36.48
2023-03-02T00:37:49.461Z,30.82
2023-03-02T00:40:16.140Z,33.14
2023-03-02T00:42:42.628Z,37.28
2023-03-02T00:45:09.322Z,38.22
2023-03-02T00:47:36.863Z,30.99
2023-03-02T00:50:05.115Z,36.63
2023-03-02T00:52:32.989Z,31.90
2023-03-02T00:54:59.743Z,34.01
2023-03-02T00:57:26.564Z,35.77
2023-03-02T00:59:53.114Z,32.16
2023-03-02T01:02:21.701Z,34.17
2023-03-02T01:04:48.883Z,29.75
2023-03-02T01:07:17.335Z,32.58
2023-03-02T01:09:44.888Z,36.60
2023-03-02T01:12:12.438Z,37.35
2023-03-02T01:14:40.050Z,33.15
2023-03-02T01:17:07.844Z,32.81
2023-03-02T01:19:34.590Z,34.01
2023-03-02T01:22:01.081Z,33.92
2023-03-02T01:24:27.815Z,35.86
2023-03-02T01:26:55.321Z,39.69
2023-03-02T01:29:22.056Z,33.80
2023-03-02T01:31:48.751Z,34.89
2023-03-02T01:34:15.380Z,35.41
2023-03-02T01:36:45.521Z,35.16
2023-03-02T01:39:15.980Z,35.71
2023-03-02T01:41:44.153Z,35.83
2023-03-02T01:44:29.639Z,32.51
2023-03-02T01:46:56.160Z,34.88
2023-03-02T01:49:22.851Z,35.65
2023-03-02T01:51:49.536Z,36.53
2023-03-02T01:54:22.864Z,37.15
2023-03-02T01:56:52.921Z,36.28
2023-03-02T01:59:22.266Z,32.16
2023-03-02T02:01:54.077Z,32.22
2023-03-02T02:04:21.700Z,32.84
2023-03-02T02:06:51.134Z,34.27
2023-03-02T02:09:20.180Z,31.55
2023-03-02T02:11:47.519Z,32.33
2023-03-02T02:14:14.027Z,32.89
2023-03-02T02:16:41.770Z,32.37
2023-03-02T02:19:26.939Z,35.21
2023-03-02T02:21:53.498Z,31.64
2023-03-02T02:24:26.044Z,30.83
2023-03-02T02:26:54.991Z,34.07
2023-03-02T02:29:25.003Z,33.60
2023-03-02T02:31:57.143Z,33.68
2023-03-02T02:34:28.761Z,30.40
2023-03-02T02:36:59.119Z,32.76
2023-03-02T02:39:29.521Z,36.53
2023-03-02T02:41:59.218Z,32.64
2023-03-02T02:44:26.344Z,29.60
2023-03-02T02:46:52.773Z,33.42
2023-03-02T02:49:28.306Z,32.90
2023-03-02T02:51:55.170Z,32.96
2023-03-02T02:54:23.347Z,36.87
2023-03-02T02:56:51.919Z,37.85
2023-03-02T02:59:28.949Z,39.15
2023-03-02T03:01:56.513Z,32.96
2023-03-02T03:04:28.467Z,29.60
2023-03-02T03:07:03.559Z,32.47
2023-03-02T03:09:30.375Z,28.05
2023-03-02T03:12:09.340Z,33.92
2023-03-02T03:14:39.254Z,34.92
2023-03-02T03:17:12.582Z,33.91
2023-03-02T03:19:41.819Z,29.73
2023-03-02T03:22:11.958Z,31.22
2023-03-02T03:24:40.026Z,29.75
2023-03-02T03:27:07.562Z,31.85
2023-03-02T03:29:34.853Z,29.31
2023-03-02T03:32:01.935Z,28.68
2023-03-02T03:34:30.169Z,29.89
2023-03-02T03:37:01.640Z,25.55
2023-03-02T03:39:31.801Z,26.52
2023-03-02T03:41:58.306Z,26.68
2023-03-02T03:44:24.770Z,23.05
2023-03-02T03:46:51.423Z,23.32
2023-03-02T03:49:18.356Z,22.03
2023-03-02T03:51:44.880Z,24.61
2023-03-02T03:54:11.666Z,25.85
2023-03-02T03:56:39.734Z,26.08
2023-03-02T03:59:07.900Z,23.35
2023-03-02T04:01:37.953Z,26.77
2023-03-02T04:04:06.342Z,22.50
2023-03-02T04:06:33.067Z,22.56
2023-03-02T04:09:04.740Z,24.57
2023-03-02T04:11:32.430Z,25.35
2023-03-02T04:13:58.887Z,24.40
2023-03-02T04:16:25.486Z,24.31
2023-03-02T04:18:52.037Z,22.76
2023-03-02T04:21:19.082Z,23.80
2023-03-02T04:23:45.607Z,21.61
2023-03-02T04:26:12.054Z,22.66
2023-03-02T04:28:38.520Z,25.89
2023-03-02T04:31:05.192Z,23.76
2023-03-02T04:33:31.864Z,25.24
2023-03-02T04:35:58.450Z,26.77
2023-03-02T04:38:29.685Z,23.00
2023-03-02T04:40:57.300Z,24.57
2023-03-02T04:43:25.682Z,22.57
2023-03-02T04:45:53.097Z,24.59
2023-03-02T04:48:19.773Z,21.84
2023-03-02T04:50:46.526Z,23.38
2023-03-02T04:53:13.077Z,23.49
2023-03-02T04:55:39.752Z,24.24
2023-03-02T04:58:07.858Z,22.52
2023-03-02T05:00:35.292Z,22.12
2023-03-02T05:03:02.377Z,25.85
2023-03-02T05:05:29.021Z,23.77
2023-03-02T05:07:55.640Z,21.43
2023-03-02T05:10:23.540Z,21.89
2023-03-02T05:13:02.414Z,24.60
2023-03-02T05:15:31.373Z,22.13
2023-03-02T05:17:58.309Z,24.42
2023-03-02T05:20:30.271Z,24.66
2023-03-02T05:22:58.823Z,23.66
2023-03-02T05:25:26.319Z,23.35
2023-03-02T05:27:53.330Z,23.64
2023-03-02T05:30:20.149Z,23.12
2023-03-02T05:32:46.680Z,23.96
2023-03-02T05:35:14.240Z,23.37
2023-03-02T05:37:42.663Z,23.21
2023-03-02T05:40:09.904Z,22.30
2023-03-02T05:42:36.762Z,23.00
2023-03-02T05:45:04.501Z,25.23
2023-03-02T05:47:30.960Z,26.37
2023-03-02T05:49:57.546Z,24.42
2023-03-02T05:52:24.135Z,24.71
2023-03-02T05:54:50.610Z,27.69
2023-03-02T05:57:17.152Z,24.73
2023-03-02T05:59:46.402Z,25.55
2023-03-02T06:02:13.567Z,24.68
2023-03-02T06:04:43.139Z,26.43
2023-03-02T06:07:13.422Z,24.53
2023-03-02T06:09:40.471Z,24.43
2023-03-02T06:12:08.161Z,24.07
2023-03-02T06:14:35.278Z,26.31
2023-03-02T06:17:01.747Z,25.49
2023-03-02T06:19:28.290Z,24.39
2023-03-02T06:21:54.884Z,24.62
2023-03-02T06:24:21.377Z,28.27
2023-03-02T06:26:47.874Z,24.12
2023-03-02T06:29:14.342Z,27.07
2023-03-02T06:31:40.956Z,27.33
2023-03-02T06:34:07.473Z,25.90
2023-03-02T06:36:34.254Z,25.52
2023-03-02T06:39:00.937Z,24.66
2023-03-02T06:41:27.440Z,25.74
2023-03-02T06:43:53.950Z,24.37
2023-03-02T06:46:20.565Z,24.29
2023-03-02T06:48:47.215Z,25.25
2023-03-02T06:51:13.821Z,26.86
2023-03-02T06:53:40.347Z,24.88
2023-03-02T06:56:07.219Z,26.99
2023-03-02T06:58:34.667Z,27.22
2023-03-02T07:01:01.334Z,27.50
2023-03-02T07:03:27.980Z,23.33
2023-03-02T07:05:54.577Z,26.13
2023-03-02T07:08:21.087Z,25.91
2023-03-02T07:10:47.587Z,28.08
2023-03-02T07:13:14.105Z,25.89
2023-03-02T07:15:40.690Z,26.65
2023-03-02T07:18:07.430Z,26.31
2023-03-02T07:20:34.282Z,26.45
2023-03-02T07:23:00.757Z,24.93
2023-03-02T07:25:27.303Z,26.30
2023-03-02T07:27:53.822Z,20.60
2023-03-02T07:30:21.329Z,23.11
2023-03-02T07:32:48.118Z,25.39
2023-03-02T07:35:14.707Z,24.32
2023-03-02T07:37:41.181Z,26.29
2023-03-02T07:40:08.035Z,24.83
2023-03-02T07:42:34.524Z,26.88
2023-03-02T07:45:01.019Z,23.43
2023-03-02T07:47:27.696Z,25.27
2023-03-02T07:49:54.314Z,27.32
2023-03-02T07:52:20.802Z,24.97
2023-03-02T07:54:47.346Z,25.01
2023-03-02T07:57:16.202Z,28.06
2023-03-02T07:59:43.297Z,27.99
2023-03-02T08:02:14.311Z,25.21
2023-03-02T08:04:40.875Z,24.27
2023-03-02T08:07:07.350Z,22.88
2023-03-02T08:09:33.877Z,23.47
2023-03-02T08:12:00.421Z,24.57
2023-03-02T08:14:26.989Z,23.84
2023-03-02T08:16:53.494Z,23.68
2023-03-02T08:19:20.065Z,25.12
2023-03-02T08:21:46.576Z,23.41
2023-03-02T08:24:13.150Z,25.65
2023-03-02T08:26:39.788Z,26.09
2023-03-02T08:29:07.005Z,23.13
2023-03-02T08:31:33.898Z,21.46
2023-03-02T08:34:00.775Z,23.35
2023-03-02T08:36:27.436Z,20.28
2023-03-02T08:38:54.700Z,19.97
2023-03-02T08:41:22.973Z,22.00
2023-03-02T08:43:50.119Z,20.87
2023-03-02T08:46:18.222Z,20.38
2023-03-02T08:48:45.443Z,18.45
2023-03-02T08:51:13.921Z,19.39
2023-03-02T08:53:42.484Z,22.56
2023-03-02T08:56:25.797Z,21.16
2023-03-02T08:58:53.294Z,20.87
2023-03-02T09:01:21.649Z,18.56
2023-03-02T09:03:48.283Z,18.67
2023-03-02T09:06:14.899Z,21.85
2023-03-02T09:08:41.881Z,20.64
2023-03-02T09:11:08.533Z,20.95
2023-03-02T09:13:35.338Z,18.98
2023-03-02T09:16:01.889Z,18.81
2023-03-02T09:18:29.526Z,21.74
2023-03-02T09:20:56.886Z,19.77
2023-03-02T09:23:24.562Z,18.69
2023-03-02T09:25:51.683Z,20.00
2023-03-02T09:28:18.215Z,20.64
2023-03-02T09:30:52.161Z,18.66
2023-03-02T09:33:19.685Z,18.14
2023-03-02T09:35:47.517Z,19.19
2023-03-02T09:38:16.505Z,20.72
2023-03-02T09:40:52.813Z,19.98
2023-03-02T09:43:28.128Z,22.26
2023-03-02T09:45:57.827Z,21.98
2023-03-02T09:48:33.671Z,20.31
2023-03-02T09:51:06.571Z,18.75
2023-03-02T09:53:59.299Z,18.43
2023-03-02T09:56:26.610Z,19.64
2023-03-02T09:59:02.765Z,20.03
2023-03-02T10:01:42.837Z,20.46
2023-03-02T10:04:18.305Z,21.12
2023-03-02T10:06:45.515Z,21.58
2023-03-02T10:09:12.143Z,21.19
2023-03-02T10:11:50.902Z,21.13
2023-03-02T10:14:25.687Z,19.46
2023-03-02T10:17:12.117Z,21.14
2023-03-02T10:19:44.452Z,23.96
2023-03-02T10:22:17.796Z,22.34
2023-03-02T10:24:59.365Z,22.74
2023-03-02T10:27:39.183Z,21.99
2023-03-02T10:30:14.729Z,20.43
2023-03-02T10:32:51.871Z,21.04
2023-03-02T10:35:21.141Z,21.08
2023-03-02T10:37:48.836Z,22.91
2023-03-02T10:40:41.814Z,21.63
2023-03-02T10:43:15.289Z,22.52
2023-03-02T10:45:41.862Z,22.92
2023-03-02T10:48:13.679Z,23.54
2023-03-02T10:50:42.553Z,24.92
2023-03-02T10:53:17.396Z,21.25
2023-03-02T10:55:45.544Z,20.59
2023-03-02T10:58:30.441Z,21.60
2023-03-02T11:00:58.492Z,20.45
2023-03-02T11:03:25.023Z,21.00
2023-03-02T11:05:51.682Z,21.16
2023-03-02T11:08:23.235Z,22.35
2023-03-02T11:11:00.905Z,22.07
2023-03-02T11:13:30.997Z,21.26
2023-03-02T11:16:02.532Z,21.36
2023-03-02T11:18:33.833Z,21.00
2023-03-02T11:21:10.353Z,21.64
2023-03-02T11:23:55.658Z,21.61
2023-03-02T11:26:25.278Z,18.22
2023-03-02T11:28:51.767Z,20.11
2023-03-02T11:31:41.358Z,21.19
2023-03-02T11:34:22.514Z,19.45
2023-03-02T11:36:58.283Z,20.38
2023-03-02T11:39:29.719Z,19.37
2023-03-02T11:41:56.402Z,20.46
2023-03-02T11:44:24.833Z,17.92
2023-03-02T11:46:56.681Z,20.41
2023-03-02T11:49:35.064Z,20.12
2023-03-02T11:52:02.226Z,19.11
2023-03-02T11:54:36.820Z,20.37
2023-03-02T11:57:04.659Z,19.93
2023-03-02T11:59:33.333Z,22.44
2023-03-02T12:02:01.421Z,19.70
2023-03-02T12:04:28.464Z,18.73
2023-03-02T12:06:55.919Z,22.04
2023-03-02T12:09:22.480Z,21.87
2023-03-02T12:11:55.272Z,21.68
2023-03-02T12:14:35.924Z,21.90
2023-03-02T12:17:22.842Z,21.54
2023-03-02T12:19:51.803Z,18.58
2023-03-02T12:22:31.646Z,19.95
2023-03-02T12:25:01.311Z,18.60
2023-03-02T12:27:34.122Z,21.29
2023-03-02T12:30:00.565Z,21.82
2023-03-02T12:32:30.073Z,22.32
2023-03-02T12:35:00.661Z,20.94
2023-03-02T12:37:27.257Z,20.48
2023-03-02T12:39:53.779Z,21.03
2023-03-02T12:42:40.194Z,19.69
2023-03-02T12:45:25.604Z,19.85
2023-03-02T12:47:59.674Z,18.38
2023-03-02T12:50:30.084Z,18.66
2023-03-02T12:52:58.575Z,17.97
2023-03-02T12:55:25.155Z,21.19
2023-03-02T12:57:53.590Z,18.93
2023-03-02T13:00:22.085Z,18.88
2023-03-02T13:02:50.459Z,19.10
2023-03-02T13:05:19.131Z,19.33
2023-03-02T13:07:45.562Z,19.79
2023-03-02T13:10:20.824Z,18.73
2023-03-02T13:12:47.552Z,20.45
2023-03-02T13:15:16.013Z,19.22
2023-03-02T13:17:43.394Z,19.44
2023-03-02T13:20:13.382Z,19.64
2023-03-02T13:22:40.498Z,18.67
2023-03-02T13:25:08.320Z,19.72
2023-03-02T13:27:34.906Z,18.15
2023-03-02T13:30:20.109Z,20.21
2023-03-02T13:32:46.904Z,21.38
2023-03-02T13:35:20.851Z,19.96
2023-03-02T13:37:47.355Z,20.03
2023-03-02T13:40:23.266Z,20.44
2023-03-02T13:42:49.783Z,21.94
2023-03-02T13:45:25.434Z,19.56
2023-03-02T13:47:52.980Z,18.90
2023-03-02T13:50:21.929Z,20.74
2023-03-02T13:52:49.740Z,20.91
2023-03-02T13:55:18.301Z,18.01
2023-03-02T13:57:45.992Z,19.84
2023-03-02T14:00:35.588Z,21.00
2023-03-02T14:03:02.155Z,18.50
2023-03-02T14:05:33.409Z,20.71
2023-03-02T14:08:00.934Z,19.78
2023-03-02T14:10:27.853Z,19.73
2023-03-02T14:13:00.679Z,20.32
2023-03-02T14:15:27.249Z,17.05
2023-03-02T14:17:53.798Z,18.07
2023-03-02T14:20:20.378Z,19.67
2023-03-02T14:22:47.978Z,17.49
2023-03-02T14:25:14.948Z,20.04
2023-03-02T14:27:43.213Z,18.30
2023-03-02T14:30:15.176Z,17.41
2023-03-02T14:32:41.728Z,16.75
2023-03-02T14:35:11.432Z,18.04
2023-03-02T14:37:41.637Z,16.32
2023-03-02T14:40:20.556Z,17.87
2023-03-02T14:42:47.192Z,17.17
2023-03-02T14:45:13.678Z,18.52
2023-03-02T14:47:40.169Z,18.50
2023-03-02T14:50:06.816Z,18.51
2023-03-02T14:52:41.023Z,16.50
2023-03-02T14:55:37.144Z,17.98
2023-03-02T14:58:05.124Z,18.66
2023-03-02T15:00:31.754Z,19.14
2023-03-02T15:02:59.303Z,17.93
2023-03-02T15:05:25.948Z,19.60
2023-03-02T15:07:53.754Z,18.75
2023-03-02T15:10:22.260Z,18.72
2023-03-02T15:12:49.369Z,17.65
2023-03-02T15:15:16.604Z,19.34
2023-03-02T15:17:43.365Z,20.20
2023-03-02T15:20:13.980Z,18.58
2023-03-02T15:22:40.449Z,18.11
2023-03-02T15:25:07.597Z,19.29
2023-03-02T15:27:34.093Z,20.95
2023-03-02T15:30:00.569Z,19.10
2023-03-02T15:32:27.094Z,18.64
2023-03-02T15:34:53.601Z,19.48
2023-03-02T15:37:20.159Z,19.93
2023-03-02T15:39:47.278Z,19.15
2023-03-02T15:42:14.135Z,20.11
2023-03-02T15:44:40.796Z,19.00
2023-03-02T15:47:07.400Z,18.92
2023-03-02T15:49:34.018Z,18.44
2023-03-02T15:52:00.754Z,18.89
2023-03-02T15:54:28.439Z,17.78
2023-03-02T15:56:55.099Z,20.54
2023-03-02T15:59:26.715Z,16.65
2023-03-02T16:01:54.016Z,18.64
2023-03-02T16:04:20.535Z,18.46
2023-03-02T16:06:47.060Z,16.22
2023-03-02T16:09:13.572Z,14.99
2023-03-02T16:11:40.134Z,15.87
2023-03-02T16:14:06.681Z,17.40
2023-03-02T16:16:33.408Z,17.03
2023-03-02T16:18:59.928Z,15.44
2023-03-02T16:21:28.629Z,15.91
2023-03-02T16:24:02.869Z,13.84
2023-03-02T16:26:29.453Z,15.56
2023-03-02T16:28:55.921Z,14.59
2023-03-02T16:31:26.501Z,14.64
2023-03-02T16:33:54.154Z,15.02
2023-03-02T16:36:21.241Z,14.16
2023-03-02T16:38:48.801Z,14.84
2023-03-02T16:41:20.028Z,14.14
2023-03-02T16:43:48.407Z,13.29
2023-03-02T16:46:16.140Z,13.32
2023-03-02T16:48:42.937Z,13.07
2023-03-02T16:51:09.871Z,13.48
2023-03-02T16:53:36.633Z,15.46
2023-03-02T16:56:03.294Z,13.25
2023-03-02T16:58:29.972Z,12.52
2023-03-02T17:00:56.629Z,15.48
2023-03-02T17:03:23.283Z,14.22
2023-03-02T17:05:50.090Z,12.99
2023-03-02T17:08:17.439Z,14.10
2023-03-02T17:10:44.615Z,14.26
2023-03-02T17:13:12.150Z,15.06
2023-03-02T17:15:39.760Z,15.14
2023-03-02T17:18:06.347Z,16.11
2023-03-02T17:20:33.504Z,16.97
2023-03-02T17:23:00.377Z,15.20
2023-03-02T17:25:26.945Z,16.04
2023-03-02T17:27:53.419Z,15.31
2023-03-02T17:30:20.231Z,13.81
2023-03-02T17:32:46.815Z,16.67
2023-03-02T17:35:13.720Z,15.44
2023-03-02T17:37:40.719Z,14.92
2023-03-02T17:40:08.445Z,16.57
2023-03-02T17:42:34.958Z,15.61
2023-03-02T17:45:01.494Z,14.21
2023-03-02T17:47:28.152Z,15.81
2023-03-02T17:49:56.219Z,14.19
2023-03-02T17:52:22.978Z,13.74
2023-03-02T17:54:49.829Z,13.34
2023-03-02T17:57:21.894Z,14.34
2023-03-02T17:59:50.229Z,15.04
2023-03-02T18:02:19.879Z,13.70
2023-03-02T18:04:46.575Z,13.38
2023-03-02T18:07:13.565Z,13.13
2023-03-02T18:09:40.074Z,13.69
2023-03-02T18:12:07.608Z,12.57
2023-03-02T18:14:34.294Z,12.47
2023-03-02T18:17:02.071Z,12.25
2023-03-02T18:19:28.552Z,11.83
2023-03-02T18:21:55.039Z,13.47
2023-03-02T18:24:21.612Z,13.26
2023-03-02T18:26:48.091Z,12.24
2023-03-02T18:29:14.688Z,13.53
2023-03-02T18:31:41.195Z,12.87
2023-03-02T18:34:07.869Z,13.32
2023-03-02T18:36:34.409Z,13.18
2023-03-02T18:39:00.900Z,13.91
2023-03-02T18:41:27.373Z,13.08
2023-03-02T18:43:53.893Z,12.89
2023-03-02T18:46:24.624Z,12.77
2023-03-02T18:48:52.302Z,11.95
2023-03-02T18:51:19.729Z,12.92
2023-03-02T18:53:46.934Z,13.16
2023-03-02T18:56:14.283Z,12.96
2023-03-02T18:58:41.044Z,14.91
2023-03-02T19:01:08.390Z,12.84
2023-03-02T19:03:37.097Z,14.07
2023-03-02T19:06:03.772Z,14.15
2023-03-02T19:08:30.817Z,14.34
2023-03-02T19:10:57.681Z,14.24
2023-03-02T19:13:25.007Z,14.29
2023-03-02T19:15:54.626Z,14.06
2023-03-02T19:18:23.515Z,13.32
2023-03-02T19:20:51.582Z,13.13
2023-03-02T19:23:18.466Z,12.82
2023-03-02T19:25:45.286Z,13.39
2023-03-02T19:28:12.210Z,12.21
2023-03-02T19:30:40.137Z,12.20
2023-03-02T19:33:07.430Z,14.20
2023-03-02T19:35:34.447Z,12.76
2023-03-02T19:38:01.339Z,13.79
2023-03-02T19:40:30.207Z,11.78
2023-03-02T19:42:56.860Z,13.26
2023-03-02T19:45:29.112Z,13.01
2023-03-02T19:47:57.854Z,12.21
2023-03-02T19:50:25.996Z,12.49
2023-03-02T19:52:54.849Z,12.16
2023-03-02T19:55:22.250Z,12.35
2023-03-02T19:57:56.527Z,12.01
2023-03-02T20:00:24.043Z,12.24
2023-03-02T20:02:50.638Z,12.55
2023-03-02T20:05:17.168Z,13.01
2023-03-02T20:07:43.696Z,11.29
2023-03-02T20:10:11.067Z,12.04
2023-03-02T20:12:37.680Z,13.77
2023-03-02T20:15:05.574Z,13.45
2023-03-02T20:17:32.083Z,11.88
2023-03-02T20:20:01.003Z,12.43
2023-03-02T20:22:27.546Z,11.52
2023-03-02T20:24:54.058Z,11.78
2023-03-02T20:27:21.295Z,11.12
2023-03-02T20:29:48.459Z,10.79
2023-03-02T20:32:15.223Z,11.56
2023-03-02T20:34:43.097Z,10.93
2023-03-02T20:37:10.004Z,10.53
2023-03-02T20:39:38.814Z,10.96
2023-03-02T20:42:06.847Z,10.41
2023-03-02T20:44:34.299Z,9.94
2023-03-02T20:47:02.935Z,9.11
2023-03-02T20:49:31.190Z,9.73
2023-03-02T20:51:59.028Z,8.37
2023-03-02T20:54:27.879Z,9.04
2023-03-02T20:56:54.564Z,9.45
2023-03-02T20:59:21.822Z,8.62
2023-03-02T21:01:48.708Z,9.51
2023-03-02T21:04:15.307Z,8.49
2023-03-02T21:06:41.921Z,9.19
2023-03-02T21:09:09.206Z,8.67
2023-03-02T21:11:36.448Z,9.44
2023-03-02T21:14:03.985Z,9.19
2023-03-02T21:16:37.020Z,9.17
2023-03-02T21:19:05.362Z,9.42
2023-03-02T21:21:41.140Z,8.19
2023-03-02T21:24:09.274Z,9.27
2023-03-02T21:26:36.575Z,10.02
2023-03-02T21:29:03.830Z,9.02
2023-03-02T21:31:30.467Z,9.40
2023-03-02T21:33:58.088Z,8.30
2023-03-02T21:36:24.827Z,8.71
2023-03-02T21:38:52.687Z,9.79
2023-03-02T21:41:19.713Z,10.88
2023-03-02T21:43:47.727Z,9.47
2023-03-02T21:46:15.645Z,9.19
2023-03-02T21:48:42.266Z,8.74
2023-03-02T21:51:10.806Z,9.72
2023-03-02T21:53:37.456Z,9.65
2023-03-02T21:56:04.172Z,9.46
2023-03-02T21:58:30.694Z,9.83
2023-03-02T22:00:57.372Z,10.20
2023-03-02T22:03:23.894Z,10.78
2023-03-02T22:05:50.675Z,10.51
2023-03-02T22:08:18.374Z,9.96
2023-03-02T22:10:46.170Z,9.78
2023-03-02T22:13:24.874Z,10.11
2023-03-02T22:15:58.195Z,10.74
2023-03-02T22:18:27.174Z,10.59
2023-03-02T22:20:53.704Z,9.33
2023-03-02T22:23:26.057Z,11.75
2023-03-02T22:25:54.663Z,11.04
2023-03-02T22:28:22.549Z,11.22
2023-03-02T22:30:50.881Z,12.08
2023-03-02T22:33:19.761Z,12.21
2023-03-02T22:35:46.867Z,12.21
2023-03-02T22:38:33.621Z,12.05
2023-03-02T22:41:00.228Z,11.79
2023-03-02T22:43:31.713Z,11.32
2023-03-02T22:46:15.496Z,11.83
2023-03-02T22:48:44.256Z,12.54
2023-03-02T22:51:18.241Z,11.28
2023-03-02T22:53:52.608Z,12.97
2023-03-02T22:56:28.369Z,11.08
2023-03-02T22:58:55.982Z,11.78
2023-03-02T23:01:37.780Z,10.26
2023-03-02T23:04:13.372Z,11.13
2023-03-02T23:06:45.295Z,11.94
2023-03-02T23:09:13.352Z,11.03
2023-03-02T23:11:41.535Z,9.96
2023-03-02T23:14:16.663Z,10.15
2023-03-02T23:16:43.401Z,10.51
2023-03-02T23:19:10.049Z,11.14
2023-03-02T23:21:39.430Z,10.95
2023-03-02T23:24:07.514Z,10.36
2023-03-02T23:26:34.673Z,9.51
2023-03-02T23:29:01.293Z,10.64
2023-03-02T23:31:27.829Z,10.35
2023-03-02T23:33:54.614Z,10.71
2023-03-02T23:36:21.313Z,10.57
2023-03-02T23:38:48.928Z,9.48
2023-03-02T23:41:15.941Z,8.76
2023-03-02T23:43:42.566Z,10.35
2023-03-02T23:46:13.917Z,9.55
2023-03-02T23:48:41.379Z,8.64
2023-03-02T23:51:08.100Z,8.55
2023-03-02T23:53:34.626Z,8.06
2023-03-02T23:56:01.395Z,7.94
2023-03-02T23:58:27.952Z,7.80
